This is the latest recevied weather packets stored in our database for station/object 9M2ZEE-0. If no packets are shown the sender has not sent any weather packets the latest 10 day(s).
| Time | Temp. | Humidity | Pressure | Rain* | Wind** | Luminosity | Snow |
|---|---|---|---|---|---|---|---|
| 1788270204 | 29.44° C | 99% | 1010 hPa | - | - | 0 W/m² | - |
| 1788268380 | 30° C | 99% | 1011 hPa | - | - | 0 W/m² | - |
| 1788266558 | 30.56° C | 99% | 1010 hPa | - | - | 0 W/m² | - |
| 1788264735 | 30° C | 99% | 1009 hPa | - | - | 0 W/m² | - |
| 1788262912 | 32.22° C | 99% | 1010 hPa | - | - | 0 W/m² | - |
| 1788261087 | 31.11° C | 99% | 1010 hPa | - | - | 0 W/m² | - |
| 1788259264 | 33.33° C | 99% | 1009 hPa | - | - | 0 W/m² | - |
| 1788257440 | 33.89° C | 99% | 1009 hPa | - | - | 0 W/m² | - |
| 1788255616 | 35.56° C | 99% | 1008 hPa | - | - | 0 W/m² | - |
| 1788253793 | 38.89° C | 84% | 1008 hPa | - | - | 0 W/m² | - |
| 1788251970 | 36.67° C | 98% | 1008 hPa | - | - | 0 W/m² | - |
| 1788250146 | 39.44° C | 74% | 1008 hPa | - | - | 0 W/m² | - |
| 1788248324 | 38.33° C | 70% | 1009 hPa | - | - | 0 W/m² | - |
| 1788246501 | 36.11° C | 81% | 1009 hPa | - | - | 0 W/m² | - |
| 1788244678 | 37.22° C | 80% | 1009 hPa | - | - | 0 W/m² | - |
| 1788239354 | 35.56° C | 95% | 1011 hPa | - | - | 0 W/m² | - |
| 1788237530 | 35.56° C | 96% | 1011 hPa | - | - | 0 W/m² | - |
| 1788235992 | 34.44° C | 99% | 1011 hPa | - | - | 0 W/m² | - |
| 1788221291 | 27.22° C | 99% | 1011 hPa | - | - | 0 W/m² | - |
| 1788210353 | 26.67° C | 99% | 1010 hPa | - | - | 0 W/m² | - |
| 1788208530 | 26.67° C | 99% | 1010 hPa | - | - | 0 W/m² | - |
| 1788206708 | 26.67° C | 99% | 1010 hPa | - | - | 0 W/m² | - |
| 1788204887 | 26.67° C | 99% | 1010 hPa | - | - | 0 W/m² | - |
| 1788203063 | 27.22° C | 99% | 1010 hPa | - | - | 0 W/m² | - |
| 1788201240 | 27.22° C | 99% | 1010 hPa | - | - | 0 W/m² | - |
* Rain since midnight (hover to see other rain measurements)
** Current wind speed in m/s (hover to see current wind gust speed)